To NAV CANADA Home Page Login to a new session Search on AWWS site Feedback and Comments Disclaimer Vers la page française équivalente Tips FAQ What's new on the site To the Forecasts and Observations / NOTAM section To "File a Flight Plan" website Publications and other links Update of the User's profile FIC Telephone Numbers My Weather Data Folder Route Weather Data Regional Weather Data Local Weather Data To the Forecasts and Observations / NOTAM section
Request Generated 02/08/2016 at 09:47:21 UTC . Weather information available at that time is displayed.

METAR/TAF

VANCOUVER/VANCOUVER INTL/BC    

METAR CYVR 080900Z 00000KT 20SM BKN064 BKN093 06/05 A3052 RMK SC5AC1
SLP338=
METAR CYVR 080800Z 00000KT 20SM FEW044 BKN056 OVC069 07/05 A3054 RMK
SC2SC4AC2 SLP344=
METAR CYVR 080700Z 29003KT 20SM FEW045 BKN062 OVC069 06/05 A3054 RMK
SC1SC4AC3 SLP344=

TAF CYVR 080838Z 0809/0912 VRB03KT P6SM BKN050
FM081200 VRB03KT P6SM SCT050 TEMPO 0812/0817 FEW005 BKN050
BECMG 0819/0821 29007KT
FM090300 VRB03KT P6SM FEW005 FEW020
RMK NXT FCST BY 081200Z=
Your time UTC time
Weather data provided by Environment Canada and NAV CANADA